Time;durP1;ratioP1;P1;durP2;ratioP2;P2;SDS_P1;SDS_P2;PMS_P1;PMS_P2;Temp;Humidity;BMP_temperature;BMP_pressure;BME280_temperature;BME280_humidity;BME280_pressure;Samples;Min_cycle;Max_cycle;Signal;HPM_P1;HPM_P2
2022/10/24 00:01:34;;;;;;;11.15;3.05;;;;;;;15.67;81.50;96350.09;5026743;28;20101;-80
2022/10/24 00:04:00;;;;;;;8.18;2.92;;;;;;;15.59;82.93;96342.75;5030500;28;20062;-80
2022/10/24 00:06:27;;;;;;;8.27;3.33;;;;;;;15.49;83.74;96343.28;5026765;28;20101;-80
2022/10/24 00:08:55;;;;;;;7.93;2.88;;;;;;;15.53;83.62;96344.19;5031182;28;20539;-79
2022/10/24 00:11:24;;;;;;;13.15;3.10;;;;;;;15.52;83.80;96345.31;5030844;28;20073;-81
2022/10/24 00:13:52;;;;;;;8.95;2.85;;;;;;;15.49;84.49;96348.75;5029662;28;20065;-79
2022/10/24 00:16:19;;;;;;;12.82;3.13;;;;;;;15.47;84.79;96353.81;5030335;28;20065;-79
2022/10/24 00:18:46;;;;;;;9.48;2.88;;;;;;;15.39;84.79;96350.84;5029207;28;20042;-80
2022/10/24 00:21:12;;;;;;;7.80;2.70;;;;;;;15.47;84.95;96351.06;5008405;28;20549;-79
2022/10/24 00:23:39;;;;;;;8.05;2.60;;;;;;;15.50;84.04;96344.84;5010744;28;20130;-80
2022/10/24 00:26:09;;;;;;;11.60;3.10;;;;;;;15.39;83.07;96350.84;5008904;28;20069;-80
2022/10/24 00:28:37;;;;;;;6.15;2.65;;;;;;;15.53;83.08;96360.63;5026169;28;20128;-80
2022/10/24 00:31:05;;;;;;;6.90;2.85;;;;;;;15.53;83.61;96355.94;5028772;28;20049;-80
2022/10/24 00:33:32;;;;;;;9.95;2.75;;;;;;;15.51;84.35;96362.94;5028243;28;20072;-80
2022/10/24 00:35:58;;;;;;;10.63;3.00;;;;;;;15.33;83.63;96360.47;5028466;28;20126;-80
2022/10/24 00:38:25;;;;;;;13.13;2.60;;;;;;;15.43;83.48;96361.94;5027038;28;20113;-81
2022/10/24 00:40:52;;;;;;;10.15;3.15;;;;;;;15.43;83.35;96372.13;5027160;28;20077;-80
2022/10/24 00:43:23;;;;;;;5.72;2.78;;;;;;;15.47;83.73;96370.28;5026136;28;20045;-79
2022/10/24 00:45:50;;;;;;;6.93;2.60;;;;;;;15.47;84.13;96389.47;5028397;28;20076;-81
2022/10/24 00:48:27;;;;;;;10.20;3.05;;;;;;;15.35;84.00;96390.31;5027853;28;20054;-80
2022/10/24 00:50:59;;;;;;;9.82;2.47;;;;;;;15.23;83.33;96410.34;5028584;28;20054;-79
2022/10/24 00:53:27;;;;;;;12.15;2.92;;;;;;;15.27;84.50;96422.22;5027594;28;20106;-80
2022/10/24 00:55:56;;;;;;;10.15;2.80;;;;;;;15.17;83.91;96446.59;5025196;28;20065;-80
2022/10/24 00:58:29;;;;;;;10.32;2.92;;;;;;;15.12;85.63;96433.91;5023539;28;20049;-80
2022/10/24 01:00:57;;;;;;;9.30;2.40;;;;;;;14.65;89.54;96442.63;5022537;28;20114;-79
2022/10/24 01:03:25;;;;;;;8.95;2.78;;;;;;;14.40;92.11;96435.47;5026769;28;20356;-79
2022/10/24 01:06:10;;;;;;;9.05;2.80;;;;;;;14.06;95.82;96408.16;5028821;28;20049;-79
2022/10/24 01:08:45;;;;;;;9.35;2.92;;;;;;;13.88;98.20;96414.13;5030718;28;20070;-79
2022/10/24 01:11:21;;;;;;;8.02;2.42;;;;;;;13.88;98.79;96405.94;5030964;28;20064;-78
2022/10/24 01:14:00;;;;;;;6.35;2.60;;;;;;;13.95;99.22;96395.25;5033340;28;20046;-80
2022/10/24 01:16:35;;;;;;;11.35;2.60;;;;;;;13.80;100.00;96391.19;5013578;28;20133;-80
2022/10/24 01:19:19;;;;;;;11.57;2.75;;;;;;;13.78;100.00;96388.00;5016551;28;20058;-80
2022/10/24 01:21:53;;;;;;;12.52;2.83;;;;;;;13.73;100.00;96382.72;5037920;28;20030;-81
2022/10/24 01:24:39;;;;;;;10.38;2.55;;;;;;;13.70;100.00;96358.78;5020476;22;20142;-78
2022/10/24 01:27:20;;;;;;;11.95;2.85;;;;;;;13.63;100.00;96353.88;4973855;28;20057;-77
2022/10/24 01:29:53;;;;;;;10.45;2.60;;;;;;;13.59;100.00;96374.84;4973708;28;20143;-77
2022/10/24 01:32:31;;;;;;;7.80;2.50;;;;;;;13.56;100.00;96380.97;4972211;28;20078;-77
2022/10/24 01:35:02;;;;;;;7.40;2.60;;;;;;;13.54;100.00;96366.84;4954547;28;20499;-77
2022/10/24 01:37:37;;;;;;;6.72;2.45;;;;;;;13.51;100.00;96373.75;4973099;28;20731;-77
2022/10/24 01:40:11;;;;;;;13.20;2.63;;;;;;;13.39;100.00;96370.19;4981725;28;20057;-77
2022/10/24 01:42:41;;;;;;;8.52;2.65;;;;;;;13.41;100.00;96356.97;4975371;28;20064;-76
2022/10/24 01:45:13;;;;;;;8.82;2.45;;;;;;;13.38;100.00;96352.19;4990927;28;20117;-77
2022/10/24 01:47:43;;;;;;;8.20;2.78;;;;;;;13.38;100.00;96341.25;4992244;28;20050;-76
2022/10/24 01:50:13;;;;;;;9.10;2.42;;;;;;;13.39;100.00;96337.38;4991837;28;20043;-77
2022/10/24 01:52:43;;;;;;;11.45;2.28;;;;;;;13.39;100.00;96320.97;4992275;28;20054;-77
2022/10/24 01:55:11;;;;;;;7.57;2.22;;;;;;;13.42;100.00;96299.22;4991972;28;20743;-77
2022/10/24 01:57:38;;;;;;;7.00;2.50;;;;;;;13.41;100.00;96277.66;4991875;28;20133;-77
2022/10/24 02:00:08;;;;;;;6.05;2.33;;;;;;;13.44;100.00;96299.66;4991773;28;20054;-77
2022/10/24 02:02:39;;;;;;;7.97;2.75;;;;;;;13.42;100.00;96292.94;4992734;28;20121;-76
2022/10/24 02:05:10;;;;;;;9.20;2.35;;;;;;;13.43;100.00;96289.88;4992073;28;20570;-77
2022/10/24 02:07:40;;;;;;;7.32;2.38;;;;;;;13.40;100.00;96290.53;4998138;28;20572;-77
2022/10/24 02:10:11;;;;;;;9.20;3.22;;;;;;;13.38;100.00;96292.00;4992771;28;20051;-77
2022/10/24 02:12:45;;;;;;;9.75;2.63;;;;;;;13.36;100.00;96283.31;4993821;28;20509;-77
2022/10/24 02:15:18;;;;;;;10.77;2.58;;;;;;;13.32;100.00;96289.50;4995077;28;20046;-77
2022/10/24 02:17:46;;;;;;;9.18;3.53;;;;;;;13.30;100.00;96280.81;4996237;28;20101;-77
2022/10/24 02:20:13;;;;;;;8.63;2.22;;;;;;;13.30;100.00;96280.00;4976675;28;20046;-77
2022/10/24 02:22:47;;;;;;;8.25;2.05;;;;;;;13.22;100.00;96273.50;4995564;28;20141;-77
2022/10/24 02:25:18;;;;;;;13.68;2.38;;;;;;;13.21;100.00;96260.97;4995050;28;20524;-77
2022/10/24 02:27:50;;;;;;;9.43;2.50;;;;;;;13.19;100.00;96244.06;4995331;28;20050;-77
2022/10/24 02:30:20;;;;;;;6.85;2.20;;;;;;;13.20;100.00;96242.91;4977025;28;20046;-77
2022/10/24 02:32:52;;;;;;;6.25;2.13;;;;;;;13.12;100.00;96246.56;4995405;28;20054;-78
2022/10/24 02:35:23;;;;;;;9.98;2.45;;;;;;;13.13;100.00;96215.34;4977991;28;20129;-77
2022/10/24 02:37:52;;;;;;;8.07;2.28;;;;;;;13.16;100.00;96160.00;4995484;28;20050;-77
2022/10/24 02:40:21;;;;;;;5.43;1.83;;;;;;;13.16;100.00;96121.72;4994616;28;20105;-77
2022/10/24 02:42:54;;;;;;;10.10;1.80;;;;;;;13.18;100.00;96157.72;4995323;28;20046;-77
2022/10/24 02:45:22;;;;;;;8.65;2.28;;;;;;;13.21;100.00;96167.19;4993745;28;20105;-77
2022/10/24 02:47:55;;;;;;;9.40;2.38;;;;;;;13.20;100.00;96139.00;4994907;28;20138;-77
2022/10/24 02:50:22;;;;;;;;;;;;;;;13.24;100.00;96147.38;4994806;28;20058;-77
2022/10/24 02:52:49;;;;;;;11.15;2.05;;;;;;;13.21;100.00;96162.53;4995019;28;20378;-77
2022/10/24 02:55:16;;;;;;;9.18;2.30;;;;;;;13.19;100.00;96164.75;4995287;28;20141;-78
2022/10/24 02:57:42;;;;;;;8.57;2.03;;;;;;;13.20;100.00;96180.03;4996141;28;20054;-78
2022/10/24 03:00:11;;;;;;;8.82;2.05;;;;;;;13.21;100.00;96170.75;4995072;28;20102;-78
2022/10/24 03:02:37;;;;;;;10.57;2.45;;;;;;;13.14;100.00;96178.66;4995857;28;20141;-77
2022/10/24 03:05:06;;;;;;;7.15;1.63;;;;;;;13.19;100.00;96169.44;4995225;28;20056;-77
2022/10/24 03:07:33;;;;;;;6.88;2.30;;;;;;;13.18;100.00;96174.09;4995863;28;20046;-78
2022/10/24 03:09:59;;;;;;;6.95;1.90;;;;;;;13.24;100.00;96175.50;4996322;28;20141;-77
2022/10/24 03:12:26;;;;;;;6.00;2.13;;;;;;;13.22;100.00;96177.00;4995746;28;20038;-78
2022/10/24 03:14:53;;;;;;;8.82;2.25;;;;;;;13.26;100.00;96177.94;4995768;28;20046;-77
2022/10/24 03:17:20;;;;;;;8.50;2.20;;;;;;;13.23;100.00;96182.13;4995730;28;20130;-77
2022/10/24 03:19:47;;;;;;;7.80;2.63;;;;;;;13.29;100.00;96175.28;4996156;28;20137;-77
2022/10/24 03:22:15;;;;;;;10.13;2.08;;;;;;;13.27;100.00;96174.06;4997053;28;20066;-78
2022/10/24 03:24:41;;;;;;;6.65;1.92;;;;;;;13.26;100.00;96167.78;4995699;28;20049;-78
2022/10/24 03:27:08;;;;;;;9.35;1.92;;;;;;;13.19;100.00;96164.75;4996651;28;20516;-78
2022/10/24 03:29:35;;;;;;;5.25;1.75;;;;;;;13.26;100.00;96173.25;4998508;28;20046;-77
2022/10/24 03:32:01;;;;;;;6.93;2.20;;;;;;;13.26;100.00;96165.06;4996681;28;20072;-78
2022/10/24 03:34:30;;;;;;;6.88;2.10;;;;;;;13.36;100.00;96165.72;4996778;28;20064;-78
2022/10/24 03:36:57;;;;;;;8.93;2.60;;;;;;;13.41;100.00;96174.50;4996945;28;20045;-77
2022/10/24 03:39:25;;;;;;;8.02;2.25;;;;;;;13.45;100.00;96171.91;4995176;28;20042;-77
2022/10/24 03:41:51;;;;;;;5.43;1.70;;;;;;;13.41;100.00;96171.78;4995886;28;20391;-77
2022/10/24 03:44:18;;;;;;;6.35;1.85;;;;;;;13.49;100.00;96178.28;4994080;28;20510;-78
2022/10/24 03:46:44;;;;;;;7.50;2.08;;;;;;;13.57;100.00;96180.09;4995320;28;20080;-78
2022/10/24 03:49:11;;;;;;;5.43;2.17;;;;;;;13.55;100.00;96188.66;4994589;28;20130;-78
2022/10/24 03:51:37;;;;;;;4.75;1.60;;;;;;;13.62;100.00;96188.09;4996055;28;20058;-76
2022/10/24 03:54:04;;;;;;;5.88;1.65;;;;;;;13.63;100.00;96194.38;4995908;28;20057;-78
2022/10/24 03:56:32;;;;;;;8.70;2.00;;;;;;;13.66;100.00;96199.94;4995845;28;20054;-78
2022/10/24 03:58:59;;;;;;;7.85;1.90;;;;;;;13.62;100.00;96204.50;4995893;28;20066;-77
2022/10/24 04:01:25;;;;;;;10.35;1.85;;;;;;;13.63;100.00;96200.66;4996334;28;20046;-78
2022/10/24 04:03:52;;;;;;;4.72;1.90;;;;;;;13.61;100.00;96197.44;4996973;28;20130;-77
2022/10/24 04:06:18;;;;;;;5.85;1.70;;;;;;;13.64;100.00;96199.50;4995655;28;20057;-77
2022/10/24 04:08:45;;;;;;;9.50;2.00;;;;;;;13.65;100.00;96203.03;4995448;28;20046;-77
2022/10/24 04:11:12;;;;;;;5.78;1.60;;;;;;;13.70;100.00;96198.13;4994668;28;20129;-77
2022/10/24 04:13:40;;;;;;;3.78;1.60;;;;;;;13.63;100.00;96197.91;4995347;28;20054;-77
2022/10/24 04:16:07;;;;;;;5.45;1.85;;;;;;;13.67;100.00;96201.53;4994210;28;20047;-78
2022/10/24 04:18:34;;;;;;;7.97;2.05;;;;;;;13.67;100.00;96206.22;4996001;28;20497;-78
2022/10/24 04:21:02;;;;;;;6.38;1.85;;;;;;;13.68;100.00;96222.31;4995584;28;20050;-77
2022/10/24 04:23:33;;;;;;;5.28;1.63;;;;;;;13.71;100.00;96227.09;4995118;28;20042;-78
2022/10/24 04:25:59;;;;;;;6.57;1.85;;;;;;;13.73;100.00;96218.53;4995917;28;20047;-78
2022/10/24 04:28:28;;;;;;;7.50;1.85;;;;;;;13.78;100.00;96219.13;4994449;28;20138;-77
2022/10/24 04:30:57;;;;;;;8.45;1.70;;;;;;;13.81;100.00;96212.97;4995911;28;20113;-77
2022/10/24 04:33:24;;;;;;;5.80;1.85;;;;;;;13.81;100.00;96212.97;4995687;28;20133;-78
2022/10/24 04:35:51;;;;;;;8.52;2.40;;;;;;;13.68;100.00;96238.75;4995944;28;20043;-77
2022/10/24 04:38:18;;;;;;;6.97;2.10;;;;;;;13.55;100.00;96248.06;4994832;28;20117;-77
2022/10/24 04:40:46;;;;;;;8.35;2.42;;;;;;;13.58;100.00;96258.31;4997450;28;20141;-78
2022/10/24 04:43:12;;;;;;;5.65;2.00;;;;;;;13.65;100.00;96252.28;4995186;28;20049;-78
2022/10/24 04:45:39;;;;;;;9.65;3.20;;;;;;;13.72;100.00;96253.31;4994924;28;20141;-77
2022/10/24 04:48:07;;;;;;;11.63;2.70;;;;;;;13.73;100.00;96270.53;4994297;28;20517;-78
2022/10/24 04:50:34;;;;;;;6.80;2.05;;;;;;;13.73;100.00;96260.41;4993743;28;20046;-78
2022/10/24 04:53:01;;;;;;;4.65;2.05;;;;;;;13.72;100.00;96258.00;4994448;28;20050;-78
2022/10/24 04:55:28;;;;;;;8.20;1.92;;;;;;;13.71;100.00;96262.66;4994881;28;20532;-79
2022/10/24 04:57:55;;;;;;;5.82;2.00;;;;;;;13.64;100.00;96262.44;4994652;28;20142;-77
2022/10/24 05:00:22;;;;;;;6.80;1.98;;;;;;;13.44;100.00;96258.63;4993821;28;20137;-78
2022/10/24 05:02:48;;;;;;;9.57;2.10;;;;;;;13.43;100.00;96258.97;4994773;28;20421;-77
2022/10/24 05:05:17;;;;;;;9.15;2.10;;;;;;;13.30;100.00;96239.78;4993078;28;20562;-78
2022/10/24 05:07:44;;;;;;;10.60;1.88;;;;;;;13.29;100.00;96243.66;4994147;28;20049;-78
2022/10/24 05:10:11;;;;;;;6.78;2.00;;;;;;;13.30;100.00;96248.00;4993688;28;20042;-80
2022/10/24 05:12:38;;;;;;;8.10;2.13;;;;;;;13.35;100.00;96232.50;4994099;28;20464;-78
2022/10/24 05:15:06;;;;;;;7.15;1.90;;;;;;;13.36;100.00;96229.44;4992955;28;20536;-78
2022/10/24 05:17:33;;;;;;;9.32;2.17;;;;;;;13.31;100.00;96230.47;4993560;28;20510;-78
2022/10/24 05:20:00;;;;;;;8.95;2.30;;;;;;;13.31;100.00;96227.72;4993659;28;20046;-79
2022/10/24 05:22:28;;;;;;;8.52;2.25;;;;;;;13.32;100.00;96218.38;4993516;28;20070;-78
2022/10/24 05:24:54;;;;;;;10.40;2.40;;;;;;;13.28;100.00;96222.94;4993765;28;20562;-78
2022/10/24 05:27:23;;;;;;;8.07;2.30;;;;;;;13.32;100.00;96229.31;4993396;28;20048;-78
2022/10/24 05:29:52;;;;;;;5.00;2.08;;;;;;;13.31;100.00;96227.72;4993919;28;20069;-78
2022/10/24 05:32:19;;;;;;;9.40;2.58;;;;;;;13.36;100.00;96245.03;4993838;28;20465;-78
2022/10/24 05:34:46;;;;;;;5.25;2.45;;;;;;;13.27;100.00;96248.69;4994889;28;20046;-79
2022/10/24 05:37:13;;;;;;;10.27;1.98;;;;;;;13.25;100.00;96233.72;4995521;28;20115;-79
2022/10/24 05:39:41;;;;;;;7.97;2.33;;;;;;;13.25;100.00;96236.47;4993747;28;20050;-78
2022/10/24 05:42:09;;;;;;;10.77;2.63;;;;;;;13.32;100.00;96242.19;4991482;28;20057;-77
2022/10/24 05:44:37;;;;;;;4.90;2.00;;;;;;;13.25;100.00;96239.19;4974868;28;20081;-78
2022/10/24 05:47:03;;;;;;;6.22;2.28;;;;;;;13.28;100.00;96244.81;4991368;28;20073;-78
2022/10/24 05:49:30;;;;;;;9.85;2.40;;;;;;;13.28;100.00;96247.53;4991642;28;20141;-78
2022/10/24 05:51:57;;;;;;;6.80;2.30;;;;;;;13.32;100.00;96250.41;4976135;28;20455;-78
2022/10/24 05:54:23;;;;;;;8.07;2.63;;;;;;;13.26;100.00;96263.50;4991301;28;20038;-78
2022/10/24 05:56:54;;;;;;;7.80;2.42;;;;;;;13.27;100.00;96245.94;4992820;28;20049;-78
2022/10/24 05:59:21;;;;;;;8.18;2.72;;;;;;;13.28;100.00;96255.75;4991119;28;20056;-78
2022/10/24 06:01:47;;;;;;;8.45;2.53;;;;;;;13.31;100.00;96257.81;4992355;28;20061;-78
2022/10/24 06:04:14;;;;;;;8.80;3.10;;;;;;;13.39;100.00;96269.00;4992105;28;20050;-78
2022/10/24 06:06:43;;;;;;;9.63;2.90;;;;;;;13.29;100.00;96278.41;4992271;28;20046;-78
2022/10/24 06:09:12;;;;;;;10.52;3.53;;;;;;;13.36;100.00;96277.84;4991363;28;20038;-78
2022/10/24 06:11:39;;;;;;;7.40;2.65;;;;;;;13.37;100.00;96290.41;4991832;28;20626;-78
2022/10/24 06:14:07;;;;;;;7.70;2.50;;;;;;;13.39;100.00;96290.88;4990816;28;20053;-78
2022/10/24 06:16:34;;;;;;;13.25;2.90;;;;;;;13.35;100.00;96293.47;4991395;28;20077;-78
2022/10/24 06:19:01;;;;;;;7.80;2.92;;;;;;;13.32;100.00;96294.97;4990804;28;20074;-77
2022/10/24 06:21:27;;;;;;;8.52;2.88;;;;;;;13.39;100.00;96290.88;4991469;28;20046;-77
2022/10/24 06:23:54;;;;;;;7.45;2.60;;;;;;;13.29;100.00;96301.09;4992332;28;20137;-77
2022/10/24 06:26:21;;;;;;;7.80;2.60;;;;;;;13.35;100.00;96298.94;4990676;28;20141;-77
2022/10/24 06:28:47;;;;;;;10.27;2.70;;;;;;;13.36;100.00;96289.59;4991494;28;20049;-76
2022/10/24 06:31:17;;;;;;;10.23;2.97;;;;;;;13.35;100.00;96298.16;4990670;28;20050;-77
2022/10/24 06:33:43;;;;;;;7.45;2.88;;;;;;;13.36;100.00;96305.22;4991063;28;20053;-77
2022/10/24 06:36:11;;;;;;;8.38;3.10;;;;;;;13.35;100.00;96304.41;4990832;28;20137;-77
2022/10/24 06:38:37;;;;;;;5.53;2.30;;;;;;;13.46;100.00;96311.06;4991068;28;20108;-77
2022/10/24 06:41:09;;;;;;;8.90;3.03;;;;;;;13.46;100.00;96305.59;4990663;28;20050;-77
2022/10/24 06:43:36;;;;;;;12.02;2.90;;;;;;;13.44;100.00;96296.13;4991059;28;20046;-77
2022/10/24 06:46:05;;;;;;;7.75;2.33;;;;;;;13.51;100.00;96304.56;4990081;28;20066;-76
2022/10/24 06:48:33;;;;;;;6.28;2.50;;;;;;;13.56;100.00;96309.84;4991310;28;20046;-76
2022/10/24 06:51:00;;;;;;;8.45;2.65;;;;;;;13.58;100.00;96318.53;4991278;28;20066;-77
2022/10/24 06:53:26;;;;;;;6.82;2.33;;;;;;;13.60;100.00;96305.28;4991090;28;20046;-77
2022/10/24 06:55:53;;;;;;;7.65;2.22;;;;;;;13.66;100.00;96306.66;4991723;28;20129;-76
2022/10/24 06:58:19;;;;;;;10.80;2.33;;;;;;;13.68;100.00;96304.41;4990618;28;20073;-77
2022/10/24 07:00:46;;;;;;;11.10;3.05;;;;;;;13.70;100.00;96293.13;4993533;28;20046;-76
2022/10/24 07:03:15;;;;;;;7.70;3.10;;;;;;;13.73;100.00;96293.25;4994833;28;20047;-77
2022/10/24 07:05:43;;;;;;;7.80;2.45;;;;;;;13.77;100.00;96301.56;4994790;28;20502;-76
2022/10/24 07:08:09;;;;;;;7.97;2.63;;;;;;;13.76;100.00;96298.03;4994416;28;20061;-77
2022/10/24 07:10:36;;;;;;;7.82;2.40;;;;;;;13.79;100.00;96297.34;4994802;28;20038;-77
2022/10/24 07:13:03;;;;;;;6.20;2.70;;;;;;;13.84;100.00;96294.41;4994250;28;20042;-76
2022/10/24 07:15:29;;;;;;;6.50;2.65;;;;;;;13.85;100.00;96286.97;4993864;28;20050;-77
2022/10/24 07:17:56;;;;;;;11.18;2.90;;;;;;;13.91;100.00;96291.09;4994440;28;20046;-77
2022/10/24 07:20:22;;;;;;;12.13;2.45;;;;;;;13.87;100.00;96286.63;4994081;28;20050;-76
2022/10/24 07:22:50;;;;;;;9.00;2.40;;;;;;;13.89;100.00;96290.63;4994812;28;20050;-77
2022/10/24 07:25:17;;;;;;;10.60;2.85;;;;;;;13.94;100.00;96275.91;4993875;28;20133;-76
2022/10/24 07:27:44;;;;;;;7.25;2.72;;;;;;;13.94;100.00;96304.09;4994489;28;20145;-76
2022/10/24 07:30:16;;;;;;;8.77;3.15;;;;;;;13.93;100.00;96297.00;4994041;28;20138;-77
2022/10/24 07:32:43;;;;;;;12.10;3.80;;;;;;;13.93;100.00;96298.94;4994420;28;20050;-76
2022/10/24 07:35:11;;;;;;;7.07;3.13;;;;;;;13.92;100.00;96295.41;4993781;28;20054;-76
2022/10/24 07:37:38;;;;;;;7.30;3.00;;;;;;;13.96;100.00;96301.03;4993952;28;20557;-76
2022/10/24 07:40:07;;;;;;;7.50;2.95;;;;;;;13.93;100.00;96285.25;4993956;28;20046;-77
2022/10/24 07:42:34;;;;;;;9.52;3.05;;;;;;;13.90;100.00;96296.91;4993320;28;20070;-76
2022/10/24 07:45:01;;;;;;;8.05;2.55;;;;;;;13.89;100.00;96303.53;4982817;28;20051;-77
2022/10/24 07:47:28;;;;;;;7.32;2.45;;;;;;;13.90;100.00;96308.66;4993280;28;20602;-76
2022/10/24 07:49:55;;;;;;;5.13;2.50;;;;;;;13.89;100.00;96322.69;4994035;28;20060;-77
2022/10/24 07:52:21;;;;;;;10.50;2.63;;;;;;;13.89;100.00;96320.75;4993497;28;20054;-76
2022/10/24 07:54:48;;;;;;;5.72;2.10;;;;;;;13.91;100.00;96312.19;4993929;28;20149;-76
2022/10/24 07:57:16;;;;;;;8.90;2.83;;;;;;;13.78;100.00;96306.72;4993570;28;20050;-77
2022/10/24 07:59:42;;;;;;;8.70;2.47;;;;;;;13.82;100.00;96307.59;4993769;28;20072;-76
2022/10/24 08:02:10;;;;;;;6.65;2.10;;;;;;;13.83;100.00;96301.00;4993386;28;20065;-76
2022/10/24 08:04:37;;;;;;;6.68;2.55;;;;;;;13.88;100.00;96310.13;4993440;28;20410;-76
2022/10/24 08:07:03;;;;;;;7.28;2.30;;;;;;;13.92;100.00;96314.59;4993020;28;20506;-76
2022/10/24 08:09:30;;;;;;;6.43;2.03;;;;;;;13.95;100.00;96308.44;4993525;28;20039;-76
2022/10/24 08:11:56;;;;;;;6.60;2.10;;;;;;;13.96;100.00;96315.50;4993675;28;20052;-76
2022/10/24 08:14:25;;;;;;;8.27;2.90;;;;;;;13.86;100.00;96318.69;4992098;28;20042;-76
2022/10/24 08:16:51;;;;;;;7.20;2.30;;;;;;;13.91;100.00;96323.13;4993500;28;20450;-76
2022/10/24 08:19:18;;;;;;;12.68;2.65;;;;;;;13.95;100.00;96313.13;4992753;28;20133;-76
2022/10/24 08:21:45;;;;;;;6.20;1.95;;;;;;;13.95;100.00;96324.06;4993612;28;20057;-77
2022/10/24 08:24:11;;;;;;;7.55;2.70;;;;;;;13.74;100.00;96321.41;4993154;28;20138;-76
2022/10/24 08:26:40;;;;;;;7.55;2.35;;;;;;;13.82;100.00;96325.97;4993459;28;20417;-76
2022/10/24 08:29:10;;;;;;;8.13;2.25;;;;;;;13.89;100.00;96331.69;4992796;28;20650;-76
2022/10/24 08:31:38;;;;;;;9.05;2.45;;;;;;;13.93;100.00;96329.06;4993580;28;20046;-76
2022/10/24 08:34:05;;;;;;;8.00;2.25;;;;;;;13.97;100.00;96330.00;4993309;28;20137;-76
2022/10/24 08:36:33;;;;;;;6.22;2.10;;;;;;;13.96;100.00;96331.94;4993757;28;20486;-76
2022/10/24 08:39:01;;;;;;;6.53;2.83;;;;;;;13.94;100.00;96322.44;4995007;28;20046;-76
2022/10/24 08:41:32;;;;;;;7.68;2.30;;;;;;;13.94;100.00;96312.31;4995466;28;20040;-76
2022/10/24 08:44:00;;;;;;;7.32;2.28;;;;;;;14.00;100.00;96307.41;4993073;28;20058;-76
2022/10/24 08:46:52;;;;;;;6.32;2.30;;;;;;;14.05;100.00;96309.94;4993236;28;20035;-77
2022/10/24 08:49:29;;;;;;;8.35;2.30;;;;;;;14.03;100.00;96309.47;4990437;28;20105;-76
2022/10/24 08:52:00;;;;;;;5.60;2.15;;;;;;;14.08;100.00;96301.03;4993307;28;20054;-76
2022/10/24 08:54:33;;;;;;;5.47;2.05;;;;;;;14.13;100.00;96306.28;4993118;28;20133;-77
2022/10/24 08:57:01;;;;;;;6.90;2.42;;;;;;;14.18;100.00;96297.03;4993120;28;20170;-76
2022/10/24 08:59:32;;;;;;;5.95;2.17;;;;;;;14.10;100.00;96296.03;4993453;28;20038;-77
2022/10/24 09:02:03;;;;;;;10.35;2.10;;;;;;;14.18;100.00;96302.50;4992936;28;20061;-77
2022/10/24 09:04:36;;;;;;;8.63;2.15;;;;;;;14.16;100.00;96294.66;4992290;28;20046;-77
2022/10/24 09:07:04;;;;;;;5.07;1.90;;;;;;;14.20;100.00;96303.78;4992116;28;20051;-76
2022/10/24 09:09:36;;;;;;;8.60;2.17;;;;;;;14.19;100.00;96310.38;4992082;28;20042;-77
2022/10/24 09:12:07;;;;;;;5.72;1.70;;;;;;;14.11;100.00;96319.50;4992957;28;20498;-76
2022/10/24 09:14:37;;;;;;;7.65;2.30;;;;;;;14.00;100.00;96313.69;4992192;28;20057;-77
2022/10/24 09:17:15;;;;;;;6.03;2.15;;;;;;;14.03;100.00;96320.41;4992061;28;20045;-77
2022/10/24 09:19:45;;;;;;;9.95;2.10;;;;;;;14.11;100.00;96325.00;4992318;28;20053;-76
2022/10/24 09:22:13;;;;;;;4.88;1.83;;;;;;;14.06;100.00;96317.81;4991296;28;20058;-76
2022/10/24 09:24:44;;;;;;;6.15;2.30;;;;;;;14.11;100.00;96311.31;4992108;28;20046;-77
2022/10/24 09:27:15;;;;;;;7.20;2.13;;;;;;;14.07;100.00;96324.06;4991867;28;20132;-77
2022/10/24 09:29:42;;;;;;;7.40;2.05;;;;;;;14.10;100.00;96334.34;4992850;28;20056;-76
2022/10/24 09:32:17;;;;;;;6.85;2.88;;;;;;;14.09;100.00;96343.69;4991612;28;20057;-77
2022/10/24 09:34:44;;;;;;;6.55;2.40;;;;;;;14.10;100.00;96339.81;4975280;28;20046;-77
2022/10/24 09:37:29;;;;;;;4.78;2.20;;;;;;;13.94;100.00;96336.13;4975044;28;20399;-77
2022/10/24 09:40:09;;;;;;;5.88;2.40;;;;;;;13.97;100.00;96341.72;4992553;28;20047;-75
2022/10/24 09:42:37;;;;;;;5.20;2.33;;;;;;;14.03;100.00;96345.06;4992159;28;20465;-77
2022/10/24 09:45:19;;;;;;;9.82;2.85;;;;;;;13.99;100.00;96344.94;4991299;28;20506;-76
2022/10/24 09:47:55;;;;;;;7.10;2.22;;;;;;;13.98;100.00;96337.84;4992526;28;20104;-77
2022/10/24 09:50:23;;;;;;;7.13;2.20;;;;;;;14.00;100.00;96341.06;4975106;28;20064;-77
2022/10/24 09:52:52;;;;;;;6.70;2.38;;;;;;;14.04;100.00;96332.94;4975777;28;20042;-76
2022/10/24 09:55:23;;;;;;;6.05;2.08;;;;;;;14.04;100.00;96331.03;4992382;28;20058;-77
2022/10/24 09:57:53;;;;;;;8.82;2.53;;;;;;;14.06;100.00;96338.91;4993162;28;20050;-77
2022/10/24 10:00:23;;;;;;;6.40;1.90;;;;;;;14.08;100.00;96336.63;4992777;28;20050;-77
2022/10/24 10:03:01;;;;;;;6.70;2.35;;;;;;;14.05;100.00;96332.63;4993263;28;20058;-77
2022/10/24 10:05:29;;;;;;;9.50;2.85;;;;;;;14.08;100.00;96348.38;4991453;28;20038;-77
2022/10/24 10:07:56;;;;;;;7.47;2.70;;;;;;;14.04;100.00;96347.47;4991880;28;20057;-76
2022/10/24 10:10:32;;;;;;;8.45;3.25;;;;;;;14.10;100.00;96359.00;4991206;28;20068;-77
2022/10/24 10:13:04;;;;;;;8.65;2.92;;;;;;;14.13;100.00;96344.59;4991975;28;20522;-76
2022/10/24 10:15:34;;;;;;;8.70;3.13;;;;;;;14.12;100.00;96347.69;4973455;28;20039;-76
2022/10/24 10:18:06;;;;;;;11.30;2.72;;;;;;;14.08;100.00;96342.88;4992180;28;20101;-76
2022/10/24 10:20:37;;;;;;;9.68;3.13;;;;;;;14.05;100.00;96351.78;4991923;28;20117;-76
2022/10/24 10:23:24;;;;;;;7.95;2.67;;;;;;;14.07;100.00;96351.44;4991308;28;20046;-76
2022/10/24 10:26:02;;;;;;;8.30;2.92;;;;;;;14.06;100.00;96349.84;4992419;28;20422;-77
2022/10/24 10:28:29;;;;;;;8.32;3.10;;;;;;;14.07;100.00;96357.72;4992211;28;20050;-76
2022/10/24 10:30:59;;;;;;;6.80;2.88;;;;;;;14.09;100.00;96357.38;4993711;28;20068;-76
2022/10/24 10:33:36;;;;;;;8.88;2.95;;;;;;;14.04;100.00;96352.13;4993219;28;20570;-76
2022/10/24 10:36:10;;;;;;;6.35;2.80;;;;;;;14.05;100.00;96348.25;4997404;28;20056;-75
2022/10/24 10:38:48;;;;;;;9.02;3.03;;;;;;;14.04;100.00;96343.91;4996805;28;20121;-75
2022/10/24 10:41:33;;;;;;;7.07;2.97;;;;;;;14.05;100.00;96348.25;4993948;28;20038;-75
2022/10/24 10:44:17;;;;;;;6.68;2.83;;;;;;;14.11;100.00;96338.69;4993526;28;20057;-75
2022/10/24 10:46:53;;;;;;;10.70;3.47;;;;;;;14.14;100.00;96343.47;4996751;28;20053;-76
2022/10/24 10:49:28;;;;;;;10.40;3.45;;;;;;;14.18;100.00;96338.09;4986686;28;20205;-76
2022/10/24 10:51:58;;;;;;;8.95;2.85;;;;;;;14.17;100.00;96345.53;4996679;28;20050;-76
2022/10/24 10:54:51;;;;;;;8.98;3.30;;;;;;;14.20;100.00;96344.84;4995900;28;20046;-76
2022/10/24 10:57:21;;;;;;;7.77;2.93;;;;;;;14.26;100.00;96343.50;4996260;28;20054;-75
2022/10/24 10:59:57;;;;;;;10.93;3.33;;;;;;;14.29;100.00;96336.50;4996209;28;20691;-76
2022/10/24 11:02:46;;;;;;;6.95;2.60;;;;;;;14.23;100.00;96349.63;4995776;28;20058;-76
2022/10/24 11:05:33;;;;;;;9.45;3.05;;;;;;;14.27;100.00;96342.34;4995991;28;20046;-75
2022/10/24 11:08:10;;;;;;;9.88;3.13;;;;;;;14.27;100.00;96350.56;4995970;28;20054;-75
2022/10/24 11:10:41;;;;;;;11.65;3.17;;;;;;;14.24;100.00;96356.72;4995898;28;20043;-75
2022/10/24 11:13:19;;;;;;;8.82;2.60;;;;;;;14.05;100.00;96359.22;4996923;28;20057;-75
2022/10/24 11:15:50;;;;;;;6.80;3.05;;;;;;;13.77;100.00;96354.34;4998483;28;20133;-77
2022/10/24 11:18:25;;;;;;;8.10;2.58;;;;;;;13.73;100.00;96353.44;4998048;28;20042;-77
2022/10/24 11:20:57;;;;;;;8.05;2.38;;;;;;;13.68;100.00;96355.59;4995803;28;20042;-77
2022/10/24 11:23:30;;;;;;;7.55;2.58;;;;;;;13.58;100.00;96348.63;4995275;28;20494;-75
2022/10/24 11:26:01;;;;;;;11.52;2.63;;;;;;;13.68;100.00;96359.13;4995486;28;20137;-76
2022/10/24 11:28:32;;;;;;;7.75;2.65;;;;;;;13.62;100.00;96354.19;4994882;28;20049;-75
2022/10/24 11:31:03;;;;;;;6.85;2.40;;;;;;;13.54;100.00;96369.56;4995030;28;20053;-76
2022/10/24 11:33:35;;;;;;;9.88;3.20;;;;;;;13.61;100.00;96372.53;4994838;28;20046;-75
2022/10/24 11:36:09;;;;;;;13.20;2.70;;;;;;;13.49;100.00;96375.25;4994721;28;20046;-75